createdAt,value
2023-05-03T00:01:17.599Z,9.90
2023-05-03T00:03:53.007Z,9.03
2023-05-03T00:06:25.947Z,12.07
2023-05-03T00:08:57.920Z,10.65
2023-05-03T00:11:30.592Z,10.98
2023-05-03T00:14:02.698Z,11.60
2023-05-03T00:16:35.606Z,10.27
2023-05-03T00:19:10.707Z,11.02
2023-05-03T00:21:50.535Z,11.32
2023-05-03T00:24:22.469Z,10.27
2023-05-03T00:26:55.444Z,10.55
2023-05-03T00:29:27.918Z,9.77
2023-05-03T00:32:00.655Z,12.45
2023-05-03T00:34:32.601Z,13.20
2023-05-03T00:37:06.097Z,12.70
2023-05-03T00:39:38.014Z,12.13
2023-05-03T00:42:10.809Z,12.07
2023-05-03T00:44:43.063Z,11.73
2023-05-03T00:47:17.152Z,12.25
2023-05-03T00:49:49.498Z,12.18
2023-05-03T00:52:22.147Z,11.55
2023-05-03T00:54:54.180Z,12.70
2023-05-03T00:57:28.863Z,10.70
2023-05-03T01:00:01.417Z,10.98
2023-05-03T01:02:34.749Z,12.00
2023-05-03T01:05:07.735Z,11.35
2023-05-03T01:07:56.380Z,10.53
2023-05-03T01:10:42.602Z,12.25
2023-05-03T01:13:19.788Z,12.43
2023-05-03T01:16:07.089Z,12.20
2023-05-03T01:18:44.573Z,12.77
2023-05-03T01:21:20.585Z,9.13
2023-05-03T01:24:14.662Z,12.10
2023-05-03T01:26:47.856Z,10.25
2023-05-03T01:29:20.929Z,9.43
2023-05-03T01:32:07.485Z,9.27
2023-05-03T01:35:06.062Z,9.40
2023-05-03T01:37:38.275Z,10.32
2023-05-03T01:40:13.398Z,10.05
2023-05-03T01:42:46.004Z,10.90
2023-05-03T01:45:20.694Z,10.05
2023-05-03T01:47:53.056Z,11.90
2023-05-03T01:50:25.105Z,11.38
2023-05-03T01:52:57.936Z,11.00
2023-05-03T01:55:29.823Z,10.75
2023-05-03T01:58:02.929Z,11.48
2023-05-03T02:00:35.525Z,11.77
2023-05-03T02:03:07.966Z,10.38
2023-05-03T02:05:40.388Z,10.98
2023-05-03T02:08:12.493Z,14.38
2023-05-03T02:10:45.389Z,12.07
2023-05-03T02:13:17.722Z,11.97
2023-05-03T02:15:50.637Z,12.32
2023-05-03T02:18:22.513Z,13.05
2023-05-03T02:20:58.138Z,14.50
2023-05-03T02:23:30.405Z,13.57
2023-05-03T02:26:03.329Z,15.53
2023-05-03T02:28:35.253Z,15.93
2023-05-03T02:31:09.241Z,12.43
2023-05-03T02:33:42.257Z,12.93
2023-05-03T02:36:14.997Z,13.75
2023-05-03T02:38:49.819Z,12.70
2023-05-03T02:41:24.086Z,13.27
2023-05-03T02:43:56.636Z,13.68
2023-05-03T02:46:32.007Z,16.27
2023-05-03T02:49:04.905Z,15.10
2023-05-03T02:51:38.142Z,17.63
2023-05-03T02:54:11.338Z,17.25
2023-05-03T02:56:44.557Z,16.10
2023-05-03T02:59:16.475Z,18.45
2023-05-03T03:01:51.675Z,17.40
2023-05-03T03:04:24.107Z,16.77
2023-05-03T03:06:57.518Z,15.93
2023-05-03T03:09:29.986Z,17.45
2023-05-03T03:12:04.825Z,17.50
2023-05-03T03:14:37.967Z,19.80
2023-05-03T03:17:11.620Z,16.33
2023-05-03T03:19:44.619Z,16.45
2023-05-03T03:22:18.158Z,19.10
2023-05-03T03:24:52.652Z,16.30
2023-05-03T03:27:25.189Z,20.20
2023-05-03T03:29:57.096Z,18.33
2023-05-03T03:32:30.613Z,17.10
2023-05-03T03:35:05.664Z,15.05
2023-05-03T03:37:40.380Z,17.73
2023-05-03T03:40:12.813Z,19.52
2023-05-03T03:42:46.303Z,18.97
2023-05-03T03:45:18.710Z,18.75
2023-05-03T03:47:53.582Z,18.33
2023-05-03T03:50:28.654Z,17.88
2023-05-03T03:53:01.908Z,22.77
2023-05-03T03:55:34.087Z,22.20
2023-05-03T03:58:07.134Z,18.67
2023-05-03T04:00:40.077Z,18.52
2023-05-03T04:03:19.304Z,20.98
2023-05-03T04:05:53.533Z,19.30
2023-05-03T04:08:27.445Z,22.10
2023-05-03T04:10:59.770Z,22.08
2023-05-03T04:13:32.740Z,23.48
2023-05-03T04:16:08.956Z,29.10
2023-05-03T04:18:43.060Z,20.85
2023-05-03T04:21:15.103Z,25.70
2023-05-03T04:23:48.682Z,20.35
2023-05-03T04:26:31.145Z,21.13
2023-05-03T04:29:20.396Z,21.48
2023-05-03T04:31:53.286Z,20.98
2023-05-03T04:34:26.321Z,23.80
2023-05-03T04:37:00.917Z,20.73
2023-05-03T04:39:34.194Z,18.67
2023-05-03T04:42:07.806Z,17.92
2023-05-03T04:44:40.722Z,19.88
2023-05-03T04:47:12.810Z,21.40
2023-05-03T04:49:47.582Z,19.20
2023-05-03T04:52:21.060Z,21.65
2023-05-03T04:54:54.765Z,19.98
2023-05-03T04:57:28.610Z,18.48
2023-05-03T05:00:03.524Z,26.93
2023-05-03T05:02:36.575Z,20.48
2023-05-03T05:05:11.509Z,25.80
2023-05-03T05:07:44.213Z,21.85
2023-05-03T05:10:17.513Z,24.75
2023-05-03T05:12:50.950Z,18.17
2023-05-03T05:15:23.460Z,21.98
2023-05-03T05:17:57.394Z,24.45
2023-05-03T05:20:29.882Z,24.13
2023-05-03T05:23:03.814Z,25.15
2023-05-03T05:25:37.110Z,27.13
2023-05-03T05:28:11.852Z,21.15
2023-05-03T05:30:45.037Z,25.55
2023-05-03T05:33:19.054Z,27.60
2023-05-03T05:35:53.050Z,25.13
2023-05-03T05:38:27.793Z,24.40
2023-05-03T05:41:04.579Z,23.83
2023-05-03T05:43:39.008Z,25.52
2023-05-03T05:46:14.236Z,22.52
2023-05-03T05:48:47.044Z,22.98
2023-05-03T05:51:20.926Z,18.30
2023-05-03T05:53:54.285Z,15.90
2023-05-03T05:56:26.585Z,18.27
2023-05-03T05:59:01.553Z,21.48
2023-05-03T06:01:34.355Z,20.77
2023-05-03T06:04:08.993Z,22.23
2023-05-03T06:06:42.047Z,19.33
2023-05-03T06:09:24.280Z,29.15
2023-05-03T06:12:03.898Z,26.50
2023-05-03T06:14:46.274Z,23.95
2023-05-03T06:17:25.548Z,26.90
2023-05-03T06:20:01.769Z,27.92
2023-05-03T06:22:35.322Z,24.15
2023-05-03T06:25:07.838Z,27.90
2023-05-03T06:27:42.575Z,24.65
2023-05-03T06:30:15.677Z,26.37
2023-05-03T06:32:49.029Z,20.80
2023-05-03T06:35:23.186Z,21.48
2023-05-03T06:37:56.044Z,21.35
2023-05-03T06:40:28.128Z,24.00
2023-05-03T06:43:02.370Z,22.20
2023-05-03T06:45:43.334Z,22.60
2023-05-03T06:48:18.480Z,22.33
2023-05-03T06:50:50.706Z,23.23
2023-05-03T06:53:23.966Z,22.70
2023-05-03T06:55:55.915Z,22.27
2023-05-03T06:58:29.141Z,21.67
2023-05-03T07:01:02.747Z,21.25
2023-05-03T07:03:40.123Z,19.10
2023-05-03T07:06:16.090Z,19.88
2023-05-03T07:08:50.410Z,21.10
2023-05-03T07:11:25.747Z,21.08
2023-05-03T07:13:58.821Z,20.98
2023-05-03T07:16:31.151Z,20.08
2023-05-03T07:19:04.996Z,19.05
2023-05-03T07:21:37.558Z,19.63
2023-05-03T07:24:12.766Z,21.27
2023-05-03T07:26:48.501Z,19.55
2023-05-03T07:29:22.243Z,21.80
2023-05-03T07:31:56.913Z,17.17
2023-05-03T07:34:28.919Z,13.87
2023-05-03T07:37:02.562Z,15.93
2023-05-03T07:39:35.125Z,15.57
2023-05-03T07:42:09.160Z,14.02
2023-05-03T07:44:41.125Z,13.35
2023-05-03T07:47:16.231Z,13.63
2023-05-03T07:49:50.769Z,14.05
2023-05-03T07:52:25.727Z,13.98
2023-05-03T07:54:59.554Z,14.38
2023-05-03T07:57:36.142Z,15.80
2023-05-03T08:00:10.948Z,11.73
2023-05-03T08:02:47.776Z,12.55
2023-05-03T08:08:36.535Z,14.15
2023-05-03T08:11:12.034Z,12.55
2023-05-03T08:13:43.922Z,14.17
2023-05-03T08:16:17.861Z,16.23
2023-05-03T08:18:50.459Z,13.20
2023-05-03T08:21:25.592Z,16.55
2023-05-03T08:23:58.560Z,12.95
2023-05-03T08:26:31.691Z,14.60
2023-05-03T08:29:05.092Z,14.23
2023-05-03T08:31:37.937Z,13.85
2023-05-03T08:34:12.451Z,13.70
2023-05-03T08:36:45.430Z,13.65
2023-05-03T08:39:18.804Z,11.70
2023-05-03T08:41:53.187Z,14.43
2023-05-03T08:44:30.114Z,14.88
2023-05-03T08:47:02.669Z,13.23
2023-05-03T08:49:38.376Z,16.25
2023-05-03T08:52:13.992Z,13.83
2023-05-03T08:54:47.502Z,15.98
2023-05-03T08:57:22.983Z,12.25
2023-05-03T09:00:00.681Z,14.90
2023-05-03T09:02:35.336Z,18.08
2023-05-03T09:05:16.551Z,15.83
2023-05-03T09:08:08.019Z,13.80
2023-05-03T09:10:42.651Z,13.65
2023-05-03T09:13:15.813Z,16.75
2023-05-03T09:15:57.774Z,13.82
2023-05-03T09:18:32.120Z,14.60
2023-05-03T09:21:06.730Z,13.73
2023-05-03T09:23:41.438Z,15.52
2023-05-03T09:26:31.385Z,13.13
2023-05-03T09:29:05.389Z,13.98
2023-05-03T09:31:58.768Z,13.20
2023-05-03T09:34:32.937Z,13.07
2023-05-03T09:37:04.931Z,13.82
2023-05-03T09:39:38.812Z,12.13
2023-05-03T09:42:17.355Z,12.57
2023-05-03T09:44:54.488Z,12.30
2023-05-03T09:47:31.798Z,13.32
2023-05-03T09:50:07.685Z,14.40
2023-05-03T09:52:40.338Z,14.02
2023-05-03T09:55:12.722Z,12.80
2023-05-03T09:57:48.052Z,15.10
2023-05-03T10:00:21.057Z,13.82
2023-05-03T10:02:58.206Z,11.40
2023-05-03T10:05:33.774Z,12.75
2023-05-03T10:08:06.430Z,15.80
2023-05-03T10:10:42.376Z,13.33
2023-05-03T10:13:15.146Z,12.02
2023-05-03T10:15:50.520Z,13.40
2023-05-03T10:18:26.367Z,10.40
2023-05-03T10:21:15.447Z,12.50
2023-05-03T10:24:14.158Z,10.50
2023-05-03T10:26:48.455Z,11.80
2023-05-03T10:29:35.981Z,13.48
2023-05-03T10:32:43.551Z,12.63
2023-05-03T10:35:17.325Z,11.18
2023-05-03T10:37:52.196Z,13.03
2023-05-03T10:40:24.490Z,13.45
2023-05-03T10:42:57.043Z,10.32
2023-05-03T10:45:29.599Z,9.65
2023-05-03T10:48:11.273Z,8.85
2023-05-03T10:50:43.712Z,10.73
2023-05-03T10:53:40.434Z,12.35
2023-05-03T10:56:15.610Z,10.13
2023-05-03T10:58:56.973Z,9.63
2023-05-03T11:01:29.850Z,12.50
2023-05-03T11:04:33.076Z,9.40
2023-05-03T11:07:05.074Z,10.75
2023-05-03T11:09:37.674Z,8.23
2023-05-03T11:12:12.361Z,8.00
2023-05-03T11:14:45.054Z,13.57
2023-05-03T11:17:17.207Z,9.40
2023-05-03T11:19:50.351Z,9.05
2023-05-03T11:22:22.283Z,7.97
2023-05-03T11:24:54.573Z,8.43
2023-05-03T11:27:26.566Z,6.60
2023-05-03T11:29:59.840Z,10.70
2023-05-03T11:32:32.767Z,9.00
2023-05-03T11:35:07.998Z,7.32
2023-05-03T11:37:39.944Z,8.27
2023-05-03T11:40:19.523Z,11.68
2023-05-03T11:42:58.366Z,6.33
2023-05-03T11:45:44.886Z,7.72
2023-05-03T11:48:17.650Z,7.97
2023-05-03T11:50:55.724Z,10.52
2023-05-03T11:53:27.866Z,8.57
2023-05-03T11:56:01.170Z,6.97
2023-05-03T11:58:33.166Z,6.47
2023-05-03T12:01:05.887Z,7.57
2023-05-03T12:03:37.883Z,6.32
2023-05-03T12:06:11.838Z,5.88
2023-05-03T12:08:45.168Z,4.53
2023-05-03T12:11:18.583Z,5.18
2023-05-03T12:13:59.973Z,4.45
2023-05-03T12:16:52.382Z,5.93
2023-05-03T12:19:33.439Z,4.75
2023-05-03T12:22:26.067Z,6.07
2023-05-03T12:24:59.297Z,5.22
2023-05-03T12:27:32.793Z,6.65
2023-05-03T12:30:07.991Z,5.38
2023-05-03T12:32:44.389Z,4.93
2023-05-03T12:35:20.971Z,5.03
2023-05-03T12:40:34.389Z,4.68
2023-05-03T12:43:07.804Z,5.18
2023-05-03T12:45:41.113Z,5.28
2023-05-03T12:48:14.289Z,4.77
2023-05-03T12:50:46.454Z,4.80
2023-05-03T12:53:19.675Z,6.85
2023-05-03T12:55:52.404Z,5.97
2023-05-03T12:58:49.836Z,4.80
2023-05-03T13:02:05.039Z,5.03
2023-05-03T13:06:58.081Z,6.30
2023-05-03T13:10:12.577Z,5.13
2023-05-03T13:12:25.578Z,6.07
2023-05-03T13:14:58.300Z,5.63
2023-05-03T13:17:31.606Z,5.63
2023-05-03T13:20:08.542Z,6.10
2023-05-03T13:22:40.525Z,5.88
2023-05-03T13:25:13.659Z,7.05
2023-05-03T13:27:47.045Z,4.90
2023-05-03T13:30:26.108Z,5.32
2023-05-03T13:32:58.464Z,5.78
2023-05-03T13:35:31.257Z,6.25
2023-05-03T13:38:03.145Z,5.18
2023-05-03T13:40:35.498Z,4.90
2023-05-03T13:43:07.681Z,5.40
2023-05-03T13:45:40.066Z,5.75
2023-05-03T13:48:17.585Z,5.00
2023-05-03T13:50:51.220Z,5.30
2023-05-03T13:53:23.266Z,7.80
2023-05-03T13:55:56.154Z,6.80
2023-05-03T13:58:28.030Z,5.65
2023-05-03T14:01:00.391Z,6.32
2023-05-03T14:03:33.948Z,5.25
2023-05-03T14:06:08.667Z,5.40
2023-05-03T14:08:41.516Z,6.32
2023-05-03T14:11:18.906Z,5.13
2023-05-03T14:13:56.846Z,5.82
2023-05-03T14:16:40.756Z,6.50
2023-05-03T14:19:14.987Z,6.17
2023-05-03T14:21:50.606Z,5.30
2023-05-03T14:24:22.886Z,5.22
2023-05-03T14:26:55.634Z,4.93
2023-05-03T14:29:27.608Z,6.65
2023-05-03T14:32:00.051Z,6.23
2023-05-03T14:34:32.496Z,5.65
2023-05-03T14:37:04.880Z,6.28
2023-05-03T14:39:36.825Z,5.38
2023-05-03T14:42:11.142Z,5.60
2023-05-03T14:44:43.023Z,6.23
2023-05-03T14:47:15.458Z,6.57
2023-05-03T14:49:47.406Z,5.30
2023-05-03T14:52:19.751Z,5.95
2023-05-03T14:54:52.630Z,5.53
2023-05-03T14:57:25.009Z,5.33
2023-05-03T14:59:56.966Z,6.93
2023-05-03T15:02:29.511Z,5.95
2023-05-03T15:05:03.588Z,5.07
2023-05-03T15:07:35.921Z,6.85
2023-05-03T15:10:10.003Z,6.70
2023-05-03T15:12:42.583Z,6.00
2023-05-03T15:15:15.785Z,5.20
2023-05-03T15:17:48.344Z,6.13
2023-05-03T15:20:20.453Z,5.82
2023-05-03T15:22:52.857Z,5.70
2023-05-03T15:25:24.735Z,4.95
2023-05-03T15:27:57.487Z,6.90
2023-05-03T15:30:29.425Z,4.78
2023-05-03T15:33:02.429Z,5.82
2023-05-03T15:35:39.120Z,5.27
2023-05-03T15:38:11.440Z,9.38
2023-05-03T15:40:43.553Z,6.68
2023-05-03T15:43:15.877Z,7.78
2023-05-03T15:45:47.878Z,5.15
2023-05-03T15:48:20.239Z,5.67
2023-05-03T15:50:52.334Z,6.50
2023-05-03T15:53:25.836Z,6.00
2023-05-03T15:55:58.218Z,5.68
2023-05-03T15:58:31.321Z,4.63
2023-05-03T16:01:04.086Z,9.30
2023-05-03T16:03:36.569Z,8.00
2023-05-03T16:06:09.526Z,6.60
2023-05-03T16:08:42.453Z,5.78
2023-05-03T16:11:15.031Z,4.70
2023-05-03T16:13:47.288Z,6.20
2023-05-03T16:16:19.234Z,6.90
2023-05-03T16:18:51.671Z,5.93
2023-05-03T16:21:23.595Z,6.80
2023-05-03T16:23:56.638Z,6.85
2023-05-03T16:26:28.779Z,6.77
2023-05-03T16:29:01.672Z,6.10
2023-05-03T16:31:33.636Z,7.03
2023-05-03T16:34:06.259Z,6.65
2023-05-03T16:36:48.261Z,7.05
2023-05-03T16:39:20.788Z,7.07
2023-05-03T16:41:52.846Z,7.32
2023-05-03T16:44:25.387Z,5.05
2023-05-03T16:46:57.357Z,8.18
2023-05-03T16:49:34.588Z,8.18
2023-05-03T16:52:06.732Z,10.03
2023-05-03T16:54:39.090Z,6.00
2023-05-03T16:57:10.995Z,5.78
2023-05-03T16:59:43.377Z,6.28
2023-05-03T17:02:15.350Z,9.13
2023-05-03T17:04:47.742Z,6.37
2023-05-03T17:07:20.024Z,5.95
2023-05-03T17:09:53.014Z,7.03
2023-05-03T17:12:25.392Z,7.50
2023-05-03T17:14:58.117Z,5.53
2023-05-03T17:17:32.554Z,18.00
2023-05-03T17:20:05.992Z,6.10
2023-05-03T17:22:38.132Z,6.57
2023-05-03T17:25:10.930Z,12.43
2023-05-03T17:27:43.907Z,9.25
2023-05-03T17:30:17.773Z,11.93
2023-05-03T17:32:51.549Z,12.30
2023-05-03T17:35:25.237Z,7.45
2023-05-03T17:37:58.130Z,6.57
2023-05-03T17:40:30.460Z,6.97
2023-05-03T17:43:02.599Z,5.97
2023-05-03T17:45:34.944Z,8.63
2023-05-03T17:48:07.450Z,8.15
2023-05-03T17:50:40.303Z,6.85
2023-05-03T17:53:12.256Z,6.88
2023-05-03T17:58:37.888Z,5.30
2023-05-03T18:01:11.370Z,6.53
2023-05-03T18:03:43.600Z,6.15
2023-05-03T18:06:16.729Z,6.63
2023-05-03T18:08:52.335Z,7.37
2023-05-03T18:11:26.346Z,8.00
2023-05-03T18:13:59.812Z,5.63
2023-05-03T18:16:33.129Z,7.32
2023-05-03T18:19:05.312Z,7.47
2023-05-03T18:21:39.306Z,8.93
2023-05-03T18:24:11.878Z,7.97
2023-05-03T18:26:45.005Z,6.50
2023-05-03T18:29:16.938Z,10.68
2023-05-03T18:31:50.852Z,6.05
2023-05-03T18:34:24.510Z,8.07
2023-05-03T18:36:56.850Z,8.65
2023-05-03T18:39:29.897Z,5.78
2023-05-03T18:42:01.814Z,12.38
2023-05-03T18:44:36.177Z,6.38
2023-05-03T18:47:10.223Z,5.40
2023-05-03T18:49:47.339Z,6.32
2023-05-03T18:52:23.207Z,7.05
2023-05-03T18:54:56.074Z,4.78
2023-05-03T18:57:28.332Z,6.72
2023-05-03T19:00:02.704Z,5.23
2023-05-03T19:02:35.992Z,4.90
2023-05-03T19:05:10.853Z,5.25
2023-05-03T19:07:48.147Z,5.85
2023-05-03T19:10:21.399Z,6.65
2023-05-03T19:12:53.719Z,5.40
2023-05-03T19:15:27.452Z,5.47
2023-05-03T19:17:59.889Z,8.38
2023-05-03T19:20:32.167Z,7.35
2023-05-03T19:23:05.593Z,7.97
2023-05-03T19:25:37.970Z,5.30
2023-05-03T19:28:12.160Z,5.30
2023-05-03T19:30:46.225Z,6.10
2023-05-03T19:33:20.370Z,5.55
2023-05-03T19:35:54.427Z,5.93
2023-05-03T19:38:28.372Z,8.43
2023-05-03T19:41:05.928Z,5.28
2023-05-03T19:44:00.214Z,5.05
2023-05-03T19:46:33.692Z,6.20
2023-05-03T19:49:07.527Z,6.50
2023-05-03T19:51:39.475Z,8.03
2023-05-03T19:54:12.947Z,7.90
2023-05-03T19:56:45.305Z,6.03
2023-05-03T19:59:18.634Z,6.30
2023-05-03T20:01:51.079Z,5.60
2023-05-03T20:04:24.887Z,5.03
2023-05-03T20:06:57.414Z,6.32
2023-05-03T20:09:30.547Z,5.22
2023-05-03T20:12:03.541Z,5.68
2023-05-03T20:14:36.418Z,6.55
2023-05-03T20:17:08.373Z,8.00
2023-05-03T20:19:41.457Z,6.03
2023-05-03T20:22:13.414Z,7.50
2023-05-03T20:24:46.933Z,7.13
2023-05-03T20:27:18.956Z,6.38
2023-05-03T20:29:52.146Z,7.33
2023-05-03T20:32:26.492Z,7.18
2023-05-03T20:34:59.707Z,7.40
2023-05-03T20:37:31.879Z,7.85
2023-05-03T20:40:06.117Z,9.02
2023-05-03T20:42:39.066Z,8.97
2023-05-03T20:45:11.915Z,6.43
2023-05-03T20:47:44.648Z,6.40
2023-05-03T20:50:17.042Z,6.85
2023-05-03T20:52:50.521Z,9.85
2023-05-03T20:55:23.107Z,8.53
2023-05-03T20:57:56.098Z,6.80
2023-05-03T21:00:28.849Z,7.97
2023-05-03T21:03:25.857Z,7.85
2023-05-03T21:05:58.180Z,6.78
2023-05-03T21:08:30.931Z,9.13
2023-05-03T21:11:04.167Z,8.77
2023-05-03T21:13:36.608Z,8.13
2023-05-03T21:16:09.277Z,7.15
2023-05-03T21:18:42.152Z,8.85
2023-05-03T21:21:14.597Z,8.30
2023-05-03T21:23:47.658Z,6.80
2023-05-03T21:26:19.744Z,9.32
2023-05-03T21:28:52.933Z,8.63
2023-05-03T21:31:25.297Z,8.10
2023-05-03T21:33:58.638Z,7.90
2023-05-03T21:36:32.561Z,7.50
2023-05-03T21:39:05.445Z,7.97
2023-05-03T21:41:38.457Z,7.93
2023-05-03T21:44:12.368Z,7.28
2023-05-03T21:46:44.763Z,9.70
2023-05-03T21:49:17.678Z,8.85
2023-05-03T21:51:49.563Z,7.75
2023-05-03T21:54:22.261Z,7.38
2023-05-03T21:56:54.152Z,8.35
2023-05-03T21:59:26.872Z,6.67
2023-05-03T22:01:59.480Z,7.45
2023-05-03T22:04:31.976Z,9.13
2023-05-03T22:07:04.755Z,7.13
2023-05-03T22:09:37.252Z,8.35
2023-05-03T22:12:22.719Z,7.50
2023-05-03T22:14:56.216Z,7.30
2023-05-03T22:17:29.221Z,6.22
2023-05-03T22:20:01.121Z,5.85
2023-05-03T22:22:34.473Z,11.50
2023-05-03T22:25:06.921Z,7.03
2023-05-03T22:27:39.666Z,8.88
2023-05-03T22:30:25.834Z,8.43
2023-05-03T22:33:01.684Z,8.98
2023-05-03T22:35:33.977Z,7.10
2023-05-03T22:38:28.254Z,8.73
2023-05-03T22:41:00.985Z,7.90
2023-05-03T22:43:33.936Z,6.32
2023-05-03T22:46:06.172Z,7.78
2023-05-03T22:48:39.046Z,6.50
2023-05-03T22:51:11.674Z,7.90
2023-05-03T22:53:44.015Z,7.10
2023-05-03T22:56:17.009Z,6.43
2023-05-03T22:58:49.807Z,7.03
2023-05-03T23:01:22.210Z,7.53
2023-05-03T23:03:54.478Z,6.38
2023-05-03T23:06:27.282Z,7.33
2023-05-03T23:09:01.005Z,7.65
2023-05-03T23:11:33.766Z,6.60
2023-05-03T23:14:06.482Z,7.60
2023-05-03T23:16:39.318Z,7.18
2023-05-03T23:19:11.828Z,7.27
2023-05-03T23:21:44.624Z,7.43
2023-05-03T23:24:17.401Z,7.65
2023-05-03T23:26:50.573Z,8.13
2023-05-03T23:29:23.366Z,7.13
2023-05-03T23:31:56.802Z,7.50
2023-05-03T23:34:29.294Z,7.78
2023-05-03T23:37:02.045Z,8.77
2023-05-03T23:39:34.688Z,8.23
2023-05-03T23:42:07.038Z,7.80
2023-05-03T23:44:53.816Z,6.43
2023-05-03T23:47:27.992Z,6.88
2023-05-03T23:49:59.988Z,6.97
2023-05-03T23:52:32.803Z,8.73
2023-05-03T23:55:06.323Z,8.55
2023-05-03T23:57:38.752Z,7.30
